This is the latest recevied weather packets stored in our database for station/object KY0TEQ-13. If no packets are shown the sender has not sent any weather packets the latest 10 day(s).
| Time | Temp. | Humidity | Pressure | Rain* | Wind** | Luminosity | Snow |
|---|---|---|---|---|---|---|---|
| 1777603870 | 10° C | 25% | 1298.7 hPa | 0 mm | - | 0 W/m² | - |
| 1777603566 | 10° C | 24% | 1298.5 hPa | 0 mm | - | 0 W/m² | - |
| 1777603262 | 9.44° C | 25% | 1298.5 hPa | 0 mm | - | 0 W/m² | - |
| 1777602957 | 9.44° C | 24% | 1298.5 hPa | 0 mm | - | 0 W/m² | - |
| 1777602653 | 9.44° C | 24% | 1298.4 hPa | 0 mm | - | 0 W/m² | - |
| 1777602348 | 8.89° C | 24% | 1298.3 hPa | 0 mm | - | 0 W/m² | - |
| 1777602044 | 8.89° C | 27% | 1298.2 hPa | 0 mm | - | 0 W/m² | - |
| 1777601744 | 9.44° C | 24% | 1298.3 hPa | 0 mm | - | 0 W/m² | - |
| 1777601440 | 9.44° C | 26% | 1298.3 hPa | 0 mm | - | 1 W/m² | - |
| 1777587168 | 16.67° C | 16% | 1296.8 hPa | 0 mm | - | 563 W/m² | - |
| 1777585343 | 17.22° C | 16% | 1297.2 hPa | 0 mm | - | 626 W/m² | - |
| 1777584735 | 16.67° C | 17% | 1297.4 hPa | 0 mm | - | 701 W/m² | - |
| 1777584129 | 15° C | 17% | 1297.6 hPa | 0 mm | - | 200 W/m² | - |
| 1777583828 | 15.56° C | 17% | 1297.8 hPa | 0 mm | - | 157 W/m² | - |
| 1777583223 | 16.11° C | 15% | 1297.8 hPa | 0 mm | - | 785 W/m² | - |
| 1777582611 | 16.67° C | 16% | 1297.9 hPa | 0 mm | - | 734 W/m² | - |
| 1777582009 | 16.11° C | 15% | 1298.2 hPa | 0 mm | - | 510 W/m² | - |
| 1777580500 | 16.11° C | 16% | 1297.9 hPa | 0 mm | - | 933 W/m² | - |
| 1777580195 | 17.22° C | 15% | 1298.2 hPa | 0 mm | - | 477 W/m² | - |
| 1777577767 | 16.67° C | 17% | 1298.3 hPa | 0 mm | - | 953 W/m² | - |
| 1777577464 | 16.11° C | 16% | 1298.3 hPa | 0 mm | - | 918 W/m² | - |
| 1777577161 | 15° C | 16% | 1298.3 hPa | 0 mm | - | 427 W/m² | - |
| 1777576556 | 15° C | 17% | 1298.8 hPa | 0 mm | - | 986 W/m² | - |
| 1777576253 | 15° C | 18% | 1298.7 hPa | 0 mm | - | 300 W/m² | - |
| 1777575949 | 15.56° C | 18% | 1298.7 hPa | 0 mm | - | 269 W/m² | - |
* Rain latest hour (hover to see other rain measurements)
** Current wind speed in m/s (hover to see current wind gust speed)